sensor_id;sensor_type;location;lat;lon;timestamp;pressure;altitude;pressure_sealevel;temperature;humidity
70559;BME280;58108;48.094;11.838;2024-01-30T00:02:14;96702.94;;;-2.50;100.00
70559;BME280;58108;48.094;11.838;2024-01-30T00:04:40;96699.81;;;-3.02;100.00
70559;BME280;58108;48.094;11.838;2024-01-30T00:07:05;96702.34;;;-2.94;100.00
70559;BME280;58108;48.094;11.838;2024-01-30T00:09:31;96700.75;;;-3.20;100.00
70559;BME280;58108;48.094;11.838;2024-01-30T00:11:56;96698.13;;;-3.09;100.00
70559;BME280;58108;48.094;11.838;2024-01-30T00:14:22;96705.97;;;-3.53;100.00
70559;BME280;58108;48.094;11.838;2024-01-30T00:16:48;96700.81;;;-3.40;100.00
70559;BME280;58108;48.094;11.838;2024-01-30T00:19:14;96709.16;;;-2.96;100.00
70559;BME280;58108;48.094;11.838;2024-01-30T00:21:40;96707.53;;;-3.14;100.00
70559;BME280;58108;48.094;11.838;2024-01-30T00:24:05;96706.88;;;-3.65;100.00
70559;BME280;58108;48.094;11.838;2024-01-30T00:26:31;96707.69;;;-3.50;100.00
70559;BME280;58108;48.094;11.838;2024-01-30T00:28:56;96713.44;;;-2.92;100.00
70559;BME280;58108;48.094;11.838;2024-01-30T00:31:22;96705.81;;;-3.02;100.00
70559;BME280;58108;48.094;11.838;2024-01-30T00:33:47;96703.09;;;-2.75;100.00
70559;BME280;58108;48.094;11.838;2024-01-30T00:36:13;96708.28;;;-2.86;100.00
70559;BME280;58108;48.094;11.838;2024-01-30T00:38:38;96703.00;;;-2.59;100.00
70559;BME280;58108;48.094;11.838;2024-01-30T00:41:07;96715.66;;;-2.36;100.00
70559;BME280;58108;48.094;11.838;2024-01-30T00:43:33;96705.56;;;-2.61;100.00
70559;BME280;58108;48.094;11.838;2024-01-30T00:45:59;96709.19;;;-2.92;100.00
70559;BME280;58108;48.094;11.838;2024-01-30T00:48:24;96710.13;;;-3.16;100.00
70559;BME280;58108;48.094;11.838;2024-01-30T00:50:50;96709.97;;;-2.85;100.00
70559;BME280;58108;48.094;11.838;2024-01-30T00:53:15;96703.91;;;-2.68;100.00
70559;BME280;58108;48.094;11.838;2024-01-30T00:55:41;96701.31;;;-2.61;100.00
70559;BME280;58108;48.094;11.838;2024-01-30T00:58:06;96705.75;;;-2.94;100.00
70559;BME280;58108;48.094;11.838;2024-01-30T01:00:32;96711.06;;;-3.36;100.00
70559;BME280;58108;48.094;11.838;2024-01-30T01:02:58;96708.59;;;-3.59;100.00
70559;BME280;58108;48.094;11.838;2024-01-30T01:05:24;96713.69;;;-3.68;100.00
70559;BME280;58108;48.094;11.838;2024-01-30T01:07:49;96705.91;;;-3.22;100.00
70559;BME280;58108;48.094;11.838;2024-01-30T01:10:16;96709.16;;;-2.96;100.00
70559;BME280;58108;48.094;11.838;2024-01-30T01:12:43;96706.44;;;-2.64;100.00
70559;BME280;58108;48.094;11.838;2024-01-30T01:15:08;96708.31;;;-2.92;100.00
70559;BME280;58108;48.094;11.838;2024-01-30T01:17:37;96709.38;;;-3.49;100.00
70559;BME280;58108;48.094;11.838;2024-01-30T01:20:04;96707.66;;;-3.44;100.00
70559;BME280;58108;48.094;11.838;2024-01-30T01:22:31;96709.97;;;-2.85;100.00
70559;BME280;58108;48.094;11.838;2024-01-30T01:24:56;96709.91;;;-2.69;100.00
70559;BME280;58108;48.094;11.838;2024-01-30T01:27:22;96708.47;;;-3.23;100.00
70559;BME280;58108;48.094;11.838;2024-01-30T01:29:47;96717.00;;;-3.24;100.00
70559;BME280;58108;48.094;11.838;2024-01-30T01:32:13;96712.59;;;-2.96;100.00
70559;BME280;58108;48.094;11.838;2024-01-30T01:34:38;96712.78;;;-3.46;100.00
70559;BME280;58108;48.094;11.838;2024-01-30T01:37:04;96711.19;;;-3.87;100.00
70559;BME280;58108;48.094;11.838;2024-01-30T01:39:29;96711.19;;;-4.12;100.00
70559;BME280;58108;48.094;11.838;2024-01-30T01:41:55;96712.91;;;-4.19;100.00
70559;BME280;58108;48.094;11.838;2024-01-30T01:44:20;96711.16;;;-3.65;100.00
70559;BME280;58108;48.094;11.838;2024-01-30T01:46:46;96714.56;;;-3.68;100.00
70559;BME280;58108;48.094;11.838;2024-01-30T01:49:13;96707.75;;;-3.94;100.00
70559;BME280;58108;48.094;11.838;2024-01-30T01:51:41;96715.47;;;-4.14;100.00
70559;BME280;58108;48.094;11.838;2024-01-30T01:54:08;96706.94;;;-4.13;100.00
70559;BME280;58108;48.094;11.838;2024-01-30T01:56:34;96712.06;;;-4.12;100.00
70559;BME280;58108;48.094;11.838;2024-01-30T01:59:04;96708.56;;;-3.61;100.00
70559;BME280;58108;48.094;11.838;2024-01-30T02:01:32;96698.25;;;-3.36;100.00
70559;BME280;58108;48.094;11.838;2024-01-30T02:03:58;96698.13;;;-3.09;100.00
70559;BME280;58108;48.094;11.838;2024-01-30T02:06:24;96702.47;;;-3.30;100.00
70559;BME280;58108;48.094;11.838;2024-01-30T02:08:49;96702.66;;;-3.85;100.00
70559;BME280;58108;48.094;11.838;2024-01-30T02:11:15;96702.66;;;-4.09;100.00
70559;BME280;58108;48.094;11.838;2024-01-30T02:13:42;96708.63;;;-4.10;100.00
70559;BME280;58108;48.094;11.838;2024-01-30T02:16:08;96706.06;;;-4.17;100.00
70559;BME280;58108;48.094;11.838;2024-01-30T02:18:33;96706.09;;;-4.31;100.00
70559;BME280;58108;48.094;11.838;2024-01-30T02:21:17;96713.75;;;-4.32;100.00
70559;BME280;58108;48.094;11.838;2024-01-30T02:23:44;96708.66;;;-4.24;100.00
70559;BME280;58108;48.094;11.838;2024-01-30T02:26:11;96717.16;;;-4.08;100.00
70559;BME280;58108;48.094;11.838;2024-01-30T02:28:37;96714.56;;;-3.66;100.00
70559;BME280;58108;48.094;11.838;2024-01-30T02:31:03;96717.06;;;-3.54;100.00
70559;BME280;58108;48.094;11.838;2024-01-30T02:33:28;96717.06;;;-3.48;100.00
70559;BME280;58108;48.094;11.838;2024-01-30T02:35:54;96706.78;;;-3.35;100.00
70559;BME280;58108;48.094;11.838;2024-01-30T02:38:20;96701.59;;;-3.23;100.00
70559;BME280;58108;48.094;11.838;2024-01-30T02:40:45;96703.31;;;-3.20;100.00
70559;BME280;58108;48.094;11.838;2024-01-30T02:43:11;96705.06;;;-3.27;100.00
70559;BME280;58108;48.094;11.838;2024-01-30T02:45:37;96708.44;;;-3.25;100.00
70559;BME280;58108;48.094;11.838;2024-01-30T02:48:03;96699.94;;;-3.32;100.00
70559;BME280;58108;48.094;11.838;2024-01-30T02:50:29;96697.41;;;-3.38;100.00
70559;BME280;58108;48.094;11.838;2024-01-30T02:52:54;96705.19;;;-3.63;100.00
70559;BME280;58108;48.094;11.838;2024-01-30T02:55:20;96700.81;;;-3.33;100.00
70559;BME280;58108;48.094;11.838;2024-01-30T02:57:45;96694.88;;;-3.42;100.00
70559;BME280;58108;48.094;11.838;2024-01-30T03:00:11;96694.00;;;-3.43;100.00
70559;BME280;58108;48.094;11.838;2024-01-30T03:02:37;96698.25;;;-3.42;100.00
70559;BME280;58108;48.094;11.838;2024-01-30T03:05:03;96695.75;;;-3.54;100.00
70559;BME280;58108;48.094;11.838;2024-01-30T03:07:29;96688.09;;;-3.61;100.00
70559;BME280;58108;48.094;11.838;2024-01-30T03:09:54;96687.97;;;-3.22;100.00
70559;BME280;58108;48.094;11.838;2024-01-30T03:12:21;96691.41;;;-3.38;100.00
70559;BME280;58108;48.094;11.838;2024-01-30T03:14:47;96686.38;;;-3.57;100.00
70559;BME280;58108;48.094;11.838;2024-01-30T03:17:12;96688.97;;;-3.73;100.00
70559;BME280;58108;48.094;11.838;2024-01-30T03:19:38;96689.84;;;-3.89;100.00
70559;BME280;58108;48.094;11.838;2024-01-30T03:22:03;96694.13;;;-3.85;100.00
70559;BME280;58108;48.094;11.838;2024-01-30T03:24:28;96692.41;;;-3.75;100.00
70559;BME280;58108;48.094;11.838;2024-01-30T03:26:54;96683.91;;;-3.96;100.00
70559;BME280;58108;48.094;11.838;2024-01-30T03:29:19;96692.44;;;-4.02;100.00
70559;BME280;58108;48.094;11.838;2024-01-30T03:31:45;96683.03;;;-4.00;100.00
70559;BME280;58108;48.094;11.838;2024-01-30T03:34:10;96681.31;;;-3.87;100.00
70559;BME280;58108;48.094;11.838;2024-01-30T03:36:36;96686.41;;;-3.69;100.00
70559;BME280;58108;48.094;11.838;2024-01-30T03:39:01;96688.09;;;-3.62;100.00
70559;BME280;58108;48.094;11.838;2024-01-30T03:41:27;96687.28;;;-3.80;100.00
70559;BME280;58108;48.094;11.838;2024-01-30T03:43:53;96689.84;;;-3.75;100.00
70559;BME280;58108;48.094;11.838;2024-01-30T03:46:18;96684.63;;;-3.49;100.00
70559;BME280;58108;48.094;11.838;2024-01-30T03:48:45;96677.75;;;-3.31;100.00
70559;BME280;58108;48.094;11.838;2024-01-30T03:51:10;96681.03;;;-3.06;100.00
70559;BME280;58108;48.094;11.838;2024-01-30T03:53:43;96677.63;;;-3.05;100.00
70559;BME280;58108;48.094;11.838;2024-01-30T03:56:09;96682.94;;;-3.53;100.00
70559;BME280;58108;48.094;11.838;2024-01-30T03:58:35;96677.91;;;-3.84;100.00
70559;BME280;58108;48.094;11.838;2024-01-30T04:01:01;96683.03;;;-3.90;100.00
70559;BME280;58108;48.094;11.838;2024-01-30T04:03:27;96684.72;;;-3.78;100.00
70559;BME280;58108;48.094;11.838;2024-01-30T04:05:52;96674.47;;;-3.83;100.00
70559;BME280;58108;48.094;11.838;2024-01-30T04:08:18;96682.19;;;-3.85;100.00
70559;BME280;58108;48.094;11.838;2024-01-30T04:10:44;96685.50;;;-3.51;100.00
70559;BME280;58108;48.094;11.838;2024-01-30T04:13:10;96677.66;;;-3.14;100.00
70559;BME280;58108;48.094;11.838;2024-01-30T04:15:36;96676.00;;;-3.26;100.00
70559;BME280;58108;48.094;11.838;2024-01-30T04:18:01;96680.44;;;-3.79;100.00
70559;BME280;58108;48.094;11.838;2024-01-30T04:20:27;96676.06;;;-3.38;100.00
70559;BME280;58108;48.094;11.838;2024-01-30T04:22:52;96674.38;;;-3.52;100.00
70559;BME280;58108;48.094;11.838;2024-01-30T04:25:18;96677.88;;;-3.70;100.00
70559;BME280;58108;48.094;11.838;2024-01-30T04:27:44;96682.09;;;-3.57;100.00
70559;BME280;58108;48.094;11.838;2024-01-30T04:30:09;96677.81;;;-3.51;100.00
70559;BME280;58108;48.094;11.838;2024-01-30T04:32:36;96669.34;;;-3.71;100.00
70559;BME280;58108;48.094;11.838;2024-01-30T04:35:02;96672.78;;;-3.84;100.00
70559;BME280;58108;48.094;11.838;2024-01-30T04:37:27;96673.69;;;-4.01;100.00
70559;BME280;58108;48.094;11.838;2024-01-30T04:39:53;96678.78;;;-4.01;100.00
70559;BME280;58108;48.094;11.838;2024-01-30T04:42:19;96674.44;;;-3.67;100.00
70559;BME280;58108;48.094;11.838;2024-01-30T04:44:44;96681.28;;;-3.68;100.00
70559;BME280;58108;48.094;11.838;2024-01-30T04:47:10;96676.22;;;-3.91;100.00
70559;BME280;58108;48.094;11.838;2024-01-30T04:49:40;96674.50;;;-3.80;100.00
70559;BME280;58108;48.094;11.838;2024-01-30T04:52:06;96679.63;;;-3.86;100.00
70559;BME280;58108;48.094;11.838;2024-01-30T04:54:32;96684.78;;;-4.17;100.00
70559;BME280;58108;48.094;11.838;2024-01-30T04:56:58;96683.91;;;-4.35;100.00
70559;BME280;58108;48.094;11.838;2024-01-30T04:59:23;96689.88;;;-4.36;100.00
70559;BME280;58108;48.094;11.838;2024-01-30T05:01:49;96685.59;;;-3.92;100.00
70559;BME280;58108;48.094;11.838;2024-01-30T05:04:15;96687.31;;;-3.99;100.00
70559;BME280;58108;48.094;11.838;2024-01-30T05:06:41;96682.19;;;-3.95;100.00
70559;BME280;58108;48.094;11.838;2024-01-30T05:09:06;96684.66;;;-3.55;100.00
70559;BME280;58108;48.094;11.838;2024-01-30T05:11:39;96682.19;;;-3.85;100.00
70559;BME280;58108;48.094;11.838;2024-01-30T05:14:06;96679.66;;;-4.23;100.00
70559;BME280;58108;48.094;11.838;2024-01-30T05:16:32;96687.31;;;-4.14;100.00
70559;BME280;58108;48.094;11.838;2024-01-30T05:18:58;96691.53;;;-3.79;100.00
70559;BME280;58108;48.094;11.838;2024-01-30T05:21:24;96688.16;;;-4.04;100.00
70559;BME280;58108;48.094;11.838;2024-01-30T05:23:49;96695.00;;;-3.97;100.00
70559;BME280;58108;48.094;11.838;2024-01-30T05:26:15;96696.66;;;-3.76;100.00
70559;BME280;58108;48.094;11.838;2024-01-30T05:28:40;96702.63;;;-3.71;100.00
70559;BME280;58108;48.094;11.838;2024-01-30T05:31:06;96689.88;;;-3.99;100.00
70559;BME280;58108;48.094;11.838;2024-01-30T05:33:31;96689.03;;;-4.16;100.00
70559;BME280;58108;48.094;11.838;2024-01-30T05:35:57;96695.00;;;-4.28;100.00
70559;BME280;58108;48.094;11.838;2024-01-30T05:38:22;96693.28;;;-4.23;100.00
70559;BME280;58108;48.094;11.838;2024-01-30T05:40:48;96698.44;;;-4.29;100.00
70559;BME280;58108;48.094;11.838;2024-01-30T05:43:13;96695.88;;;-4.35;100.00
70559;BME280;58108;48.094;11.838;2024-01-30T05:45:39;96694.97;;;-3.85;100.00
70559;BME280;58108;48.094;11.838;2024-01-30T05:48:04;96708.59;;;-3.86;100.00
70559;BME280;58108;48.094;11.838;2024-01-30T05:50:30;96704.38;;;-4.16;100.00
70559;BME280;58108;48.094;11.838;2024-01-30T05:52:56;96701.84;;;-4.26;100.00
70559;BME280;58108;48.094;11.838;2024-01-30T05:55:21;96712.88;;;-4.05;100.00
70559;BME280;58108;48.094;11.838;2024-01-30T05:57:47;96704.38;;;-4.05;100.00
70559;BME280;58108;48.094;11.838;2024-01-30T06:00:13;96705.22;;;-4.16;100.00
70559;BME280;58108;48.094;11.838;2024-01-30T06:02:39;96706.09;;;-4.20;100.00
70559;BME280;58108;48.094;11.838;2024-01-30T06:05:04;96715.47;;;-4.25;100.00
70559;BME280;58108;48.094;11.838;2024-01-30T06:07:30;96706.09;;;-4.34;100.00
70559;BME280;58108;48.094;11.838;2024-01-30T06:09:55;96706.94;;;-3.99;100.00
70559;BME280;58108;48.094;11.838;2024-01-30T06:12:21;96709.47;;;-3.83;100.00
70559;BME280;58108;48.094;11.838;2024-01-30T06:14:46;96712.00;;;-3.80;100.00
70559;BME280;58108;48.094;11.838;2024-01-30T06:17:12;96710.34;;;-3.99;100.00
70559;BME280;58108;48.094;11.838;2024-01-30T06:19:40;96718.03;;;-4.22;100.00
70559;BME280;58108;48.094;11.838;2024-01-30T06:22:07;96715.47;;;-4.13;100.00
70559;BME280;58108;48.094;11.838;2024-01-30T06:24:32;96717.09;;;-3.57;100.00
70559;BME280;58108;48.094;11.838;2024-01-30T06:26:59;96712.00;;;-3.73;100.00
70559;BME280;58108;48.094;11.838;2024-01-30T06:29:24;96718.84;;;-4.12;100.00
70559;BME280;58108;48.094;11.838;2024-01-30T06:31:52;96718.88;;;-4.14;100.00
70559;BME280;58108;48.094;11.838;2024-01-30T06:34:17;96715.44;;;-4.05;100.00
70559;BME280;58108;48.094;11.838;2024-01-30T06:36:42;96722.28;;;-4.24;100.00
70559;BME280;58108;48.094;11.838;2024-01-30T06:39:08;96719.72;;;-4.16;100.00
70559;BME280;58108;48.094;11.838;2024-01-30T06:41:34;96716.31;;;-4.10;100.00
70559;BME280;58108;48.094;11.838;2024-01-30T06:44:02;96723.97;;;-3.87;100.00
70559;BME280;58108;48.094;11.838;2024-01-30T06:46:28;96722.28;;;-3.94;100.00
70559;BME280;58108;48.094;11.838;2024-01-30T06:48:53;96725.69;;;-4.02;100.00
70559;BME280;58108;48.094;11.838;2024-01-30T06:51:19;96725.69;;;-4.03;100.00
70559;BME280;58108;48.094;11.838;2024-01-30T06:53:45;96728.25;;;-4.00;100.00
70559;BME280;58108;48.094;11.838;2024-01-30T06:56:10;96730.81;;;-4.00;100.00
70559;BME280;58108;48.094;11.838;2024-01-30T06:58:36;96726.53;;;-4.06;100.00
70559;BME280;58108;48.094;11.838;2024-01-30T07:01:01;96739.31;;;-3.65;100.00
70559;BME280;58108;48.094;11.838;2024-01-30T07:03:27;96728.19;;;-3.53;100.00
70559;BME280;58108;48.094;11.838;2024-01-30T07:05:52;96733.25;;;-3.35;100.00
70559;BME280;58108;48.094;11.838;2024-01-30T07:08:18;96729.03;;;-3.54;100.00
70559;BME280;58108;48.094;11.838;2024-01-30T07:10:44;96738.41;;;-3.50;100.00
70559;BME280;58108;48.094;11.838;2024-01-30T07:13:10;96741.00;;;-3.69;100.00
70559;BME280;58108;48.094;11.838;2024-01-30T07:15:36;96745.28;;;-3.73;100.00
70559;BME280;58108;48.094;11.838;2024-01-30T07:18:02;96744.31;;;-3.26;100.00
70559;BME280;58108;48.094;11.838;2024-01-30T07:20:28;96752.00;;;-3.23;100.00
70559;BME280;58108;48.094;11.838;2024-01-30T07:22:55;96744.28;;;-3.19;100.00
70559;BME280;58108;48.094;11.838;2024-01-30T07:25:21;96748.59;;;-3.30;100.00
70559;BME280;58108;48.094;11.838;2024-01-30T07:27:47;96751.16;;;-3.27;100.00
70559;BME280;58108;48.094;11.838;2024-01-30T07:30:12;96749.41;;;-3.20;100.00
70559;BME280;58108;48.094;11.838;2024-01-30T07:32:38;96749.38;;;-3.09;100.00
70559;BME280;58108;48.094;11.838;2024-01-30T07:35:04;96751.94;;;-3.02;100.00
70559;BME280;58108;48.094;11.838;2024-01-30T07:37:29;96752.72;;;-2.87;100.00
70559;BME280;58108;48.094;11.838;2024-01-30T07:39:55;96755.19;;;-2.70;100.00
70559;BME280;58108;48.094;11.838;2024-01-30T07:42:21;96755.19;;;-2.67;100.00
70559;BME280;58108;48.094;11.838;2024-01-30T07:44:46;96752.59;;;-2.64;100.00
70559;BME280;58108;48.094;11.838;2024-01-30T07:47:12;96743.06;;;-2.41;100.00
70559;BME280;58108;48.094;11.838;2024-01-30T07:49:37;96756.47;;;-2.00;100.00
70559;BME280;58108;48.094;11.838;2024-01-30T07:52:03;96749.59;;;-1.97;100.00
70559;BME280;58108;48.094;11.838;2024-01-30T07:54:32;96751.28;;;-1.99;100.00
70559;BME280;58108;48.094;11.838;2024-01-30T07:57:00;96755.59;;;-1.98;100.00
70559;BME280;58108;48.094;11.838;2024-01-30T07:59:25;96754.53;;;-1.78;100.00
70559;BME280;58108;48.094;11.838;2024-01-30T08:01:51;96746.63;;;-1.53;100.00
70559;BME280;58108;48.094;11.838;2024-01-30T08:04:16;96756.97;;;-1.61;100.00
70559;BME280;58108;48.094;11.838;2024-01-30T08:06:42;96753.53;;;-1.61;100.00
70559;BME280;58108;48.094;11.838;2024-01-30T08:09:08;96760.84;;;-1.21;100.00
70559;BME280;58108;48.094;11.838;2024-01-30T08:11:34;96759.75;;;-1.00;100.00
70559;BME280;58108;48.094;11.838;2024-01-30T08:13:59;96755.50;;;-1.02;100.00
70559;BME280;58108;48.094;11.838;2024-01-30T08:16:25;96752.09;;;-1.03;100.00
70559;BME280;58108;48.094;11.838;2024-01-30T08:18:50;96740.66;;;-0.80;100.00
70559;BME280;58108;48.094;11.838;2024-01-30T08:21:16;96749.66;;;-0.46;100.00
70559;BME280;58108;48.094;11.838;2024-01-30T08:23:41;96749.66;;;-0.46;100.00
70559;BME280;58108;48.094;11.838;2024-01-30T08:26:08;96747.16;;;-0.51;100.00
70559;BME280;58108;48.094;11.838;2024-01-30T08:28:33;96751.25;;;-0.39;100.00
70559;BME280;58108;48.094;11.838;2024-01-30T08:30:59;96748.22;;;-0.08;100.00
70559;BME280;58108;48.094;11.838;2024-01-30T08:33:24;96760.84;;;0.08;100.00
70559;BME280;58108;48.094;11.838;2024-01-30T08:35:50;96757.13;;;0.28;100.00
70559;BME280;58108;48.094;11.838;2024-01-30T08:38:15;96758.56;;;0.43;100.00
70559;BME280;58108;48.094;11.838;2024-01-30T08:40:41;96754.78;;;0.62;100.00
70559;BME280;58108;48.094;11.838;2024-01-30T08:43:07;96756.28;;;0.76;100.00
70559;BME280;58108;48.094;11.838;2024-01-30T08:45:34;96753.69;;;0.76;100.00
70559;BME280;58108;48.094;11.838;2024-01-30T08:48:00;96749.22;;;0.84;100.00
70559;BME280;58108;48.094;11.838;2024-01-30T08:50:25;96744.47;;;1.08;100.00
70559;BME280;58108;48.094;11.838;2024-01-30T08:52:51;96746.81;;;1.20;100.00
70559;BME280;58108;48.094;11.838;2024-01-30T08:55:16;96754.69;;;1.54;100.00
70559;BME280;58108;48.094;11.838;2024-01-30T08:57:42;96754.97;;;1.81;100.00
70559;BME280;58108;48.094;11.838;2024-01-30T09:00:08;96755.69;;;1.86;100.00
70559;BME280;58108;48.094;11.838;2024-01-30T09:02:35;96754.47;;;2.02;100.00
70559;BME280;58108;48.094;11.838;2024-01-30T09:05:01;96766.69;;;2.32;100.00
70559;BME280;58108;48.094;11.838;2024-01-30T09:07:26;96763.63;;;2.51;100.00
70559;BME280;58108;48.094;11.838;2024-01-30T09:09:52;96765.16;;;2.58;100.00
70559;BME280;58108;48.094;11.838;2024-01-30T09:12:18;96772.44;;;2.78;99.46
70559;BME280;58108;48.094;11.838;2024-01-30T09:14:43;96770.41;;;2.88;97.94
70559;BME280;58108;48.094;11.838;2024-01-30T09:17:09;96771.03;;;2.98;98.79
70559;BME280;58108;48.094;11.838;2024-01-30T09:19:34;96772.53;;;3.07;98.43
70559;BME280;58108;48.094;11.838;2024-01-30T09:22:00;96767.53;;;3.31;94.77
70559;BME280;58108;48.094;11.838;2024-01-30T09:24:26;96765.38;;;3.47;90.55
70559;BME280;58108;48.094;11.838;2024-01-30T09:26:52;96774.25;;;3.66;84.99
70559;BME280;58108;48.094;11.838;2024-01-30T09:29:18;96769.34;;;3.87;83.82
70559;BME280;58108;48.094;11.838;2024-01-30T09:31:45;96774.84;;;4.05;84.21
70559;BME280;58108;48.094;11.838;2024-01-30T09:34:10;96775.19;;;4.21;88.92
70559;BME280;58108;48.094;11.838;2024-01-30T09:36:36;96774.53;;;4.41;87.65
70559;BME280;58108;48.094;11.838;2024-01-30T09:39:01;96769.81;;;4.54;84.34
70559;BME280;58108;48.094;11.838;2024-01-30T09:41:27;96776.28;;;4.68;83.99
70559;BME280;58108;48.094;11.838;2024-01-30T09:43:53;96776.81;;;5.03;83.05
70559;BME280;58108;48.094;11.838;2024-01-30T09:46:21;96774.91;;;5.32;79.18
70559;BME280;58108;48.094;11.838;2024-01-30T09:48:47;96780.44;;;5.46;77.59
70559;BME280;58108;48.094;11.838;2024-01-30T09:51:14;96775.97;;;5.74;84.12
70559;BME280;58108;48.094;11.838;2024-01-30T09:53:41;96773.78;;;6.09;82.01
70559;BME280;58108;48.094;11.838;2024-01-30T09:56:08;96776.16;;;6.15;76.92
70559;BME280;58108;48.094;11.838;2024-01-30T09:58:33;96777.94;;;6.36;74.43
70559;BME280;58108;48.094;11.838;2024-01-30T10:00:59;96782.22;;;6.37;71.50
70559;BME280;58108;48.094;11.838;2024-01-30T10:03:24;96779.91;;;6.51;72.36
70559;BME280;58108;48.094;11.838;2024-01-30T10:05:51;96779.41;;;6.64;67.31
70559;BME280;58108;48.094;11.838;2024-01-30T10:08:18;96773.63;;;6.78;67.54
70559;BME280;58108;48.094;11.838;2024-01-30T10:10:49;96776.03;;;6.82;67.08
70559;BME280;58108;48.094;11.838;2024-01-30T10:13:16;96768.88;;;6.88;61.40
70559;BME280;58108;48.094;11.838;2024-01-30T10:15:41;96772.84;;;6.76;69.18
70559;BME280;58108;48.094;11.838;2024-01-30T10:18:08;96761.63;;;6.74;70.32
70559;BME280;58108;48.094;11.838;2024-01-30T10:20:35;96765.88;;;6.97;64.98
70559;BME280;58108;48.094;11.838;2024-01-30T10:23:01;96755.84;;;7.08;68.21
70559;BME280;58108;48.094;11.838;2024-01-30T10:25:27;96757.13;;;7.19;64.50
70559;BME280;58108;48.094;11.838;2024-01-30T10:27:53;96753.06;;;7.32;58.34
70559;BME280;58108;48.094;11.838;2024-01-30T10:30:22;96751.66;;;7.44;61.40
70559;BME280;58108;48.094;11.838;2024-01-30T10:32:48;96753.19;;;7.48;59.00
70559;BME280;58108;48.094;11.838;2024-01-30T10:35:14;96750.03;;;7.61;58.94
70559;BME280;58108;48.094;11.838;2024-01-30T10:37:43;96744.97;;;7.77;58.70
70559;BME280;58108;48.094;11.838;2024-01-30T10:40:12;96746.56;;;7.99;58.44
70559;BME280;58108;48.094;11.838;2024-01-30T10:42:42;96739.75;;;8.14;55.55
70559;BME280;58108;48.094;11.838;2024-01-30T10:45:10;96735.47;;;8.30;55.30
70559;BME280;58108;48.094;11.838;2024-01-30T10:47:54;96733.34;;;8.39;54.70
70559;BME280;58108;48.094;11.838;2024-01-30T10:50:24;96730.75;;;8.56;53.71
70559;BME280;58108;48.094;11.838;2024-01-30T10:52:52;96735.97;;;8.74;52.95
70559;BME280;58108;48.094;11.838;2024-01-30T10:55:18;96732.66;;;8.88;52.56
70559;BME280;58108;48.094;11.838;2024-01-30T10:57:43;96729.06;;;9.07;50.59
70559;BME280;58108;48.094;11.838;2024-01-30T11:00:14;96719.16;;;9.13;49.81
70559;BME280;58108;48.094;11.838;2024-01-30T11:02:45;96717.84;;;9.38;49.15
70559;BME280;58108;48.094;11.838;2024-01-30T11:05:12;96713.47;;;9.55;49.68
70559;BME280;58108;48.094;11.838;2024-01-30T11:07:39;96708.75;;;9.78;47.36
70559;BME280;58108;48.094;11.838;2024-01-30T11:10:08;96714.91;;;9.93;46.76
70559;BME280;58108;48.094;11.838;2024-01-30T11:12:40;96705.09;;;10.88;45.12
70559;BME280;58108;48.094;11.838;2024-01-30T11:20:25;96700.75;;;14.10;38.68
70559;BME280;58108;48.094;11.838;2024-01-30T11:22:53;96694.47;;;15.41;38.24
70559;BME280;58108;48.094;11.838;2024-01-30T11:25:20;96689.94;;;16.10;35.49
70559;BME280;58108;48.094;11.838;2024-01-30T11:27:47;96683.03;;;16.94;33.56
70559;BME280;58108;48.094;11.838;2024-01-30T11:30:40;96679.47;;;17.77;30.52
70559;BME280;58108;48.094;11.838;2024-01-30T11:33:11;96679.41;;;18.08;33.16
70559;BME280;58108;48.094;11.838;2024-01-30T11:35:41;96677.41;;;17.90;30.91
70559;BME280;58108;48.094;11.838;2024-01-30T11:38:14;96678.94;;;17.83;29.90
70559;BME280;58108;48.094;11.838;2024-01-30T11:40:40;96675.31;;;17.94;30.20
70559;BME280;58108;48.094;11.838;2024-01-30T11:43:07;96671.75;;;18.44;30.27
70559;BME280;58108;48.094;11.838;2024-01-30T11:45:34;96671.38;;;17.69;30.00
70559;BME280;58108;48.094;11.838;2024-01-30T11:48:02;96666.53;;;17.33;32.02
70559;BME280;58108;48.094;11.838;2024-01-30T11:50:32;96666.38;;;17.85;29.85
70559;BME280;58108;48.094;11.838;2024-01-30T11:53:01;96669.91;;;17.45;32.04
70559;BME280;58108;48.094;11.838;2024-01-30T11:55:29;96664.09;;;17.20;32.46
70559;BME280;58108;48.094;11.838;2024-01-30T11:57:58;96663.22;;;16.67;33.22
70559;BME280;58108;48.094;11.838;2024-01-30T12:00:24;96661.91;;;15.63;35.21
70559;BME280;58108;48.094;11.838;2024-01-30T12:02:51;96661.44;;;14.89;36.46
70559;BME280;58108;48.094;11.838;2024-01-30T12:05:19;96655.97;;;14.93;37.14
70559;BME280;58108;48.094;11.838;2024-01-30T12:07:45;96656.06;;;14.91;37.87
70559;BME280;58108;48.094;11.838;2024-01-30T12:10:14;96649.13;;;15.01;38.75
70559;BME280;58108;48.094;11.838;2024-01-30T12:12:41;96655.63;;;15.87;36.23
70559;BME280;58108;48.094;11.838;2024-01-30T12:15:08;96645.63;;;15.58;36.29
70559;BME280;58108;48.094;11.838;2024-01-30T12:17:34;96654.34;;;15.70;38.30
70559;BME280;58108;48.094;11.838;2024-01-30T12:22:40;96642.00;;;16.78;36.34
70559;BME280;58108;48.094;11.838;2024-01-30T12:25:10;96647.44;;;18.69;31.99
70559;BME280;58108;48.094;11.838;2024-01-30T12:27:36;96639.22;;;17.42;32.24
70559;BME280;58108;48.094;11.838;2024-01-30T12:30:07;96649.41;;;18.57;30.07
70559;BME280;58108;48.094;11.838;2024-01-30T12:32:38;96639.34;;;18.01;30.39
70559;BME280;58108;48.094;11.838;2024-01-30T12:35:10;96643.09;;;17.99;32.57
70559;BME280;58108;48.094;11.838;2024-01-30T12:37:36;96634.56;;;17.85;30.83
70559;BME280;58108;48.094;11.838;2024-01-30T12:40:03;96639.59;;;18.67;29.00
70559;BME280;58108;48.094;11.838;2024-01-30T12:42:29;96642.16;;;18.29;29.27
70559;BME280;58108;48.094;11.838;2024-01-30T12:44:59;96642.75;;;18.91;30.41
70559;BME280;58108;48.094;11.838;2024-01-30T12:47:25;96640.50;;;18.09;28.75
70559;BME280;58108;48.094;11.838;2024-01-30T12:49:51;96626.84;;;16.80;30.18